Time;durP1;ratioP1;P1;durP2;ratioP2;P2;SDS_P1;SDS_P2;PMS_P1;PMS_P2;Temp;Humidity;BMP_temperature;BMP_pressure;BME280_temperature;BME280_humidity;BME280_pressure;Samples;Min_cycle;Max_cycle;Signal;HPM_P1;HPM_P2
2024/01/17 00:00:09;;;;;;;6.05;2.88;;;;;;;17.90;35.13;100101.50;4967454;28;20030;-71
2024/01/17 00:02:34;;;;;;;5.93;3.10;;;;;;;17.93;35.00;100119.66;4965812;28;20478;-72
2024/01/17 00:04:59;;;;;;;5.85;3.05;;;;;;;17.92;35.12;100118.00;4967443;28;20034;-72
2024/01/17 00:07:25;;;;;;;6.70;2.97;;;;;;;17.86;35.19;100111.44;4968018;28;20034;-71
2024/01/17 00:09:50;;;;;;;6.72;2.85;;;;;;;17.88;34.98;100112.16;4967884;28;20038;-71
2024/01/17 00:12:16;;;;;;;6.45;3.13;;;;;;;17.88;35.11;100111.31;4965840;28;20039;-72
2024/01/17 00:14:42;;;;;;;7.07;3.08;;;;;;;17.91;34.96;100113.69;4967407;28;20110;-72
2024/01/17 00:17:07;;;;;;;7.25;3.05;;;;;;;17.82;34.81;100093.44;4967719;28;20027;-72
2024/01/17 00:19:33;;;;;;;8.65;3.15;;;;;;;17.87;34.63;100104.38;4967510;28;20046;-72
2024/01/17 00:21:58;;;;;;;6.90;2.95;;;;;;;17.82;34.96;100088.16;4967834;28;20030;-72
2024/01/17 00:24:23;;;;;;;6.22;2.95;;;;;;;17.76;34.79;100077.19;4967956;28;20047;-72
2024/01/17 00:26:49;;;;;;;8.40;3.35;;;;;;;17.79;34.80;100068.16;4966913;28;20090;-72
2024/01/17 00:29:15;;;;;;;6.22;3.00;;;;;;;17.73;35.09;100059.00;4967140;28;20390;-72
2024/01/17 00:31:41;;;;;;;7.25;3.28;;;;;;;17.73;34.78;100056.38;4967457;28;20472;-72
2024/01/17 00:34:06;;;;;;;7.03;2.92;;;;;;;17.67;34.79;100043.75;4967396;28;20041;-72
2024/01/17 00:36:31;;;;;;;6.38;3.08;;;;;;;17.68;35.11;100042.78;4967705;28;20030;-72
2024/01/17 00:38:57;;;;;;;7.20;2.72;;;;;;;17.65;35.14;100036.97;4966271;28;20399;-72
2024/01/17 00:41:22;;;;;;;6.82;3.25;;;;;;;17.74;35.30;100050.16;4966820;28;20377;-72
2024/01/17 00:43:47;;;;;;;8.45;3.00;;;;;;;17.64;35.32;100033.53;4966548;28;20035;-72
2024/01/17 00:46:13;;;;;;;8.13;3.35;;;;;;;17.61;35.09;100018.00;4966919;28;20039;-72
2024/01/17 00:48:38;;;;;;;5.60;2.90;;;;;;;17.61;35.06;100018.00;4967364;28;20047;-73
2024/01/17 00:51:04;;;;;;;7.18;3.00;;;;;;;17.70;34.96;100037.38;4950663;28;20137;-72
2024/01/17 00:53:29;;;;;;;6.65;2.80;;;;;;;17.66;35.14;100026.31;4967745;28;20035;-73
2024/01/17 00:55:57;;;;;;;5.85;2.70;;;;;;;17.66;34.67;100014.94;4965940;28;20460;-72
2024/01/17 00:58:23;;;;;;;5.93;2.85;;;;;;;17.62;34.94;100014.38;4967077;28;20031;-72
2024/01/17 01:00:48;;;;;;;8.82;3.10;;;;;;;17.59;34.96;99997.06;4966678;28;20373;-72
2024/01/17 01:03:13;;;;;;;7.35;3.20;;;;;;;17.60;34.69;100003.16;4965686;28;20039;-72
2024/01/17 01:05:39;;;;;;;6.80;2.63;;;;;;;17.48;34.89;99983.19;4969833;28;20035;-72
2024/01/17 01:08:05;;;;;;;6.25;2.90;;;;;;;17.61;34.43;99996.06;4968962;28;20026;-72
2024/01/17 01:10:30;;;;;;;6.28;2.92;;;;;;;17.45;34.88;99971.16;4970222;28;20126;-72
2024/01/17 01:12:55;;;;;;;6.32;2.97;;;;;;;17.51;34.77;99980.28;4969847;28;20026;-72
2024/01/17 01:15:21;;;;;;;7.03;3.00;;;;;;;17.55;34.75;99992.22;4969992;28;20030;-72
2024/01/17 01:17:46;;;;;;;6.43;3.38;;;;;;;17.41;34.48;99970.59;4968212;28;20043;-72
2024/01/17 01:20:12;;;;;;;7.35;2.83;;;;;;;17.52;34.71;99987.22;4969774;28;20054;-72
2024/01/17 01:22:37;;;;;;;6.22;3.10;;;;;;;17.53;34.73;99978.31;4969913;28;21193;-71
2024/01/17 01:25:03;;;;;;;8.07;3.15;;;;;;;17.50;34.95;99987.38;4968417;28;20027;-71
2024/01/17 01:27:28;;;;;;;8.68;3.40;;;;;;;17.37;34.70;99958.69;4970209;28;20039;-71
2024/01/17 01:29:53;;;;;;;6.22;2.88;;;;;;;17.47;34.48;99963.94;4969405;28;20109;-72
2024/01/17 01:32:18;;;;;;;6.93;2.97;;;;;;;17.48;34.55;99975.28;4969801;28;20082;-72
2024/01/17 01:34:44;;;;;;;8.38;3.20;;;;;;;17.38;34.70;99957.69;4970314;28;20415;-72
2024/01/17 01:37:09;;;;;;;6.22;2.67;;;;;;;17.27;34.89;99941.22;4970793;28;20129;-72
2024/01/17 01:39:34;;;;;;;7.00;2.85;;;;;;;17.43;34.75;99969.63;4970429;28;20134;-72
2024/01/17 01:42:00;;;;;;;6.68;3.25;;;;;;;17.38;34.73;99964.78;4969816;28;20043;-72
2024/01/17 01:44:26;;;;;;;6.40;2.95;;;;;;;17.42;34.75;99968.81;4968598;28;20085;-72
2024/01/17 01:46:52;;;;;;;6.05;2.83;;;;;;;17.34;34.74;99952.84;4969074;28;20097;-72
2024/01/17 01:49:18;;;;;;;5.55;2.80;;;;;;;17.37;34.81;99963.09;4969624;28;20562;-72
2024/01/17 01:51:46;;;;;;;6.00;2.55;;;;;;;17.37;34.76;99963.09;4967903;28;20023;-72
2024/01/17 01:54:16;;;;;;;7.25;2.40;;;;;;;17.30;34.56;99959.38;4968685;28;20512;-72
2024/01/17 01:56:43;;;;;;;7.70;2.78;;;;;;;17.26;34.76;99944.81;4966859;28;20178;-72
2024/01/17 01:59:09;;;;;;;7.22;2.90;;;;;;;17.34;34.71;99952.84;4969501;28;20031;-72
2024/01/17 02:01:36;;;;;;;6.90;3.03;;;;;;;17.21;34.62;99935.56;4970013;28;20100;-71
2024/01/17 02:04:02;;;;;;;6.28;2.97;;;;;;;17.19;34.50;99929.59;4968648;28;20523;-72
2024/01/17 02:06:30;;;;;;;5.25;2.70;;;;;;;17.22;34.39;99936.38;4969788;28;20054;-72
2024/01/17 02:08:57;;;;;;;7.20;2.80;;;;;;;17.19;34.63;99924.31;4968955;28;20445;-72
2024/01/17 02:11:22;;;;;;;6.95;2.80;;;;;;;17.20;34.61;99925.19;4969478;28;20400;-72
2024/01/17 02:13:49;;;;;;;6.45;2.63;;;;;;;17.26;34.33;99942.19;4969536;28;20034;-72
2024/01/17 02:16:15;;;;;;;5.75;2.90;;;;;;;17.21;34.45;99926.81;4969017;28;20333;-72
2024/01/17 02:18:42;;;;;;;7.93;3.17;;;;;;;17.14;34.85;99916.03;4968937;28;20563;-72
2024/01/17 02:21:08;;;;;;;6.13;2.80;;;;;;;17.13;34.84;99908.25;4969614;28;20078;-72
2024/01/17 02:23:34;;;;;;;7.20;2.95;;;;;;;17.11;34.64;99902.31;4969849;28;20062;-72
2024/01/17 02:25:59;;;;;;;5.32;2.72;;;;;;;17.22;34.44;99917.94;4968490;28;20152;-72
2024/01/17 02:28:28;;;;;;;5.10;2.72;;;;;;;17.13;34.56;99900.38;4968753;28;20475;-72
2024/01/17 02:30:53;;;;;;;5.00;2.63;;;;;;;17.09;34.42;99891.09;4968911;28;20117;-72
2024/01/17 02:33:19;;;;;;;5.72;2.78;;;;;;;17.19;34.81;99902.44;4967889;28;20086;-72
2024/01/17 02:35:45;;;;;;;6.60;2.80;;;;;;;17.18;34.46;99892.88;4968681;28;20035;-72
2024/01/17 02:38:10;;;;;;;5.50;3.10;;;;;;;17.11;34.42;99876.00;4967624;28;20042;-72
2024/01/17 02:40:36;;;;;;;6.10;2.90;;;;;;;17.07;34.53;99864.91;4968814;28;20477;-72
2024/01/17 02:43:01;;;;;;;7.38;3.00;;;;;;;17.09;34.73;99862.16;4968778;28;20142;-72
2024/01/17 02:45:26;;;;;;;5.88;2.50;;;;;;;17.14;34.77;99857.28;4967753;28;20031;-72
2024/01/17 02:47:52;;;;;;;8.50;2.90;;;;;;;17.16;34.76;99861.41;4966957;28;20054;-72
2024/01/17 02:50:18;;;;;;;6.22;2.72;;;;;;;17.15;34.82;99867.66;4967509;28;20515;-72
2024/01/17 02:52:46;;;;;;;7.10;3.22;;;;;;;17.15;34.75;99858.94;4968509;28;20222;-72
2024/01/17 02:55:15;;;;;;;5.30;2.78;;;;;;;16.95;34.37;99830.00;4966921;28;20038;-72
2024/01/17 02:57:41;;;;;;;5.50;2.47;;;;;;;17.11;34.79;99849.66;4967567;28;20050;-72
2024/01/17 03:00:08;;;;;;;6.22;2.70;;;;;;;17.10;34.75;99846.22;4967631;28;20031;-72
2024/01/17 03:02:33;;;;;;;5.55;2.60;;;;;;;17.04;34.60;99823.09;4966723;28;20027;-73
2024/01/17 03:04:59;;;;;;;7.28;2.70;;;;;;;17.06;34.47;99823.75;4967619;28;20034;-73
2024/01/17 03:07:24;;;;;;;6.63;2.85;;;;;;;17.04;34.75;99818.63;4967743;28;20030;-72
2024/01/17 03:09:49;;;;;;;6.60;2.50;;;;;;;16.95;34.34;99797.59;4966796;28;20467;-73
2024/01/17 03:12:15;;;;;;;5.95;2.97;;;;;;;17.06;34.70;99826.41;4967526;28;20053;-71
2024/01/17 03:14:40;;;;;;;6.32;2.65;;;;;;;17.02;34.72;99820.59;4967841;28;20030;-71
2024/01/17 03:17:06;;;;;;;5.85;2.83;;;;;;;17.01;34.60;99826.00;4965053;28;20054;-71
2024/01/17 03:19:31;;;;;;;7.00;3.00;;;;;;;16.94;34.63;99809.94;4966239;28;20418;-71
2024/01/17 03:21:56;;;;;;;6.07;2.47;;;;;;;16.93;34.45;99812.72;4967591;28;20097;-72
2024/01/17 03:24:22;;;;;;;6.35;2.92;;;;;;;16.90;34.81;99805.94;4967216;28;20049;-73
2024/01/17 03:26:47;;;;;;;5.80;2.60;;;;;;;17.02;34.52;99819.75;4965465;28;20101;-72
2024/01/17 03:29:12;;;;;;;6.07;2.53;;;;;;;16.94;34.79;99801.19;4967267;28;20554;-71
2024/01/17 03:31:37;;;;;;;7.53;3.22;;;;;;;16.99;34.59;99805.09;4967531;28;20122;-72
2024/01/17 03:34:03;;;;;;;6.63;2.65;;;;;;;17.00;34.82;99806.72;4967442;28;20524;-71
2024/01/17 03:36:29;;;;;;;5.80;2.40;;;;;;;16.97;34.40;99788.59;4981889;28;20059;-71
2024/01/17 03:38:55;;;;;;;6.45;2.85;;;;;;;16.96;34.46;99779.03;4967046;28;20089;-71
2024/01/17 03:41:21;;;;;;;7.72;2.58;;;;;;;16.99;34.60;99772.66;4967370;28;20035;-71
2024/01/17 03:43:46;;;;;;;5.63;2.40;;;;;;;16.91;34.57;99760.22;4967838;28;20027;-71
2024/01/17 03:46:12;;;;;;;5.45;2.50;;;;;;;17.00;34.80;99766.41;4968032;28;20114;-72
2024/01/17 03:48:37;;;;;;;5.50;2.85;;;;;;;16.96;34.57;99744.00;4967833;28;20093;-71
2024/01/17 03:51:02;;;;;;;7.93;2.97;;;;;;;16.91;34.44;99722.53;4966282;28;20070;-71
2024/01/17 03:53:27;;;;;;;6.32;2.92;;;;;;;16.99;34.81;99733.16;4967922;28;20030;-70
2024/01/17 03:55:53;;;;;;;7.20;2.88;;;;;;;16.99;34.52;99725.25;4967727;28;20153;-72
2024/01/17 03:58:18;;;;;;;4.95;2.50;;;;;;;16.94;34.71;99711.72;4966923;28;20035;-72
2024/01/17 04:00:44;;;;;;;6.38;2.78;;;;;;;16.95;34.73;99705.50;4950801;28;20062;-71
2024/01/17 04:03:15;;;;;;;5.07;2.08;;;;;;;16.92;34.43;99697.88;4965740;28;20035;-71
2024/01/17 04:05:43;;;;;;;5.35;2.50;;;;;;;16.90;34.77;99691.94;4966912;28;20039;-71
2024/01/17 04:08:09;;;;;;;4.78;2.55;;;;;;;16.99;34.55;99693.69;4967036;28;20037;-72
2024/01/17 04:10:34;;;;;;;7.47;2.50;;;;;;;16.94;34.80;99688.88;4965716;28;20121;-72
2024/01/17 04:13:00;;;;;;;4.80;2.25;;;;;;;16.86;34.42;99668.53;4965311;28;20101;-72
2024/01/17 04:15:25;;;;;;;5.03;2.30;;;;;;;16.88;34.51;99651.75;4967818;28;20094;-72
2024/01/17 04:17:51;;;;;;;6.47;2.45;;;;;;;16.96;34.52;99657.16;4967771;28;20089;-72
2024/01/17 04:20:16;;;;;;;7.90;2.42;;;;;;;16.89;34.51;99641.09;4967687;28;20472;-72
2024/01/17 04:22:41;;;;;;;5.90;2.60;;;;;;;17.00;34.26;99648.78;4967992;28;20031;-72
2024/01/17 04:25:07;;;;;;;5.60;2.30;;;;;;;16.99;34.75;99649.78;4966166;28;20054;-72
2024/01/17 04:27:32;;;;;;;7.30;2.35;;;;;;;17.01;34.66;99650.47;4967561;28;20509;-72
2024/01/17 04:29:59;;;;;;;5.30;2.30;;;;;;;16.92;34.59;99629.47;4967610;28;20418;-72
2024/01/17 04:32:24;;;;;;;5.47;1.98;;;;;;;16.93;34.67;99628.50;4967248;28;20046;-71
2024/01/17 04:34:50;;;;;;;5.40;2.30;;;;;;;17.00;34.75;99626.91;4967518;28;20043;-71
2024/01/17 04:37:16;;;;;;;5.10;2.35;;;;;;;17.00;34.76;99614.56;4982407;28;20047;-71
2024/01/17 04:39:41;;;;;;;5.90;2.70;;;;;;;17.03;34.45;99613.47;4983579;28;20484;-72
2024/01/17 04:42:07;;;;;;;4.43;1.83;;;;;;;16.90;34.72;99587.50;4970839;28;20498;-72
2024/01/17 04:44:32;;;;;;;5.05;2.30;;;;;;;17.03;34.67;99606.38;4970389;28;20103;-72
2024/01/17 04:46:58;;;;;;;6.75;2.20;;;;;;;17.06;34.42;99612.34;4969285;28;20046;-71
2024/01/17 04:49:27;;;;;;;5.30;2.33;;;;;;;16.98;34.81;99598.09;4969737;28;20055;-72
2024/01/17 04:51:53;;;;;;;7.22;2.42;;;;;;;16.95;34.62;99585.25;4970304;28;20031;-71
2024/01/17 04:54:23;;;;;;;5.10;2.17;;;;;;;17.06;34.59;99586.84;4969703;28;20053;-71
2024/01/17 04:56:49;;;;;;;5.40;2.00;;;;;;;17.06;34.87;99576.31;4969368;28;20039;-73
2024/01/17 04:59:15;;;;;;;6.75;2.30;;;;;;;16.91;34.54;99548.84;4970547;28;20039;-72
2024/01/17 05:01:40;;;;;;;6.40;2.22;;;;;;;17.01;34.72;99566.22;4969076;28;20074;-72
2024/01/17 05:04:07;;;;;;;4.68;2.10;;;;;;;17.06;34.63;99571.06;4969001;28;20034;-72
2024/01/17 05:06:33;;;;;;;5.95;2.40;;;;;;;16.94;34.64;99546.75;4970718;28;20388;-73
2024/01/17 05:08:59;;;;;;;4.72;2.35;;;;;;;17.07;35.01;99563.97;4970751;28;20055;-72
2024/01/17 05:11:27;;;;;;;7.05;2.20;;;;;;;17.01;34.89;99553.06;4969851;28;20038;-73
2024/01/17 05:13:53;;;;;;;6.28;2.20;;;;;;;16.94;34.75;99530.97;4970896;28;20039;-73
2024/01/17 05:16:18;;;;;;;6.10;2.10;;;;;;;17.05;34.81;99548.34;4970022;28;20506;-73
2024/01/17 05:18:43;;;;;;;5.53;2.08;;;;;;;16.99;34.83;99539.25;4970384;28;20495;-72
2024/01/17 05:21:09;;;;;;;4.88;2.00;;;;;;;17.00;34.86;99537.44;4970497;28;20081;-72
2024/01/17 05:23:34;;;;;;;5.68;2.40;;;;;;;17.06;34.54;99539.47;4968893;28;20459;-73
2024/01/17 05:25:59;;;;;;;4.68;2.65;;;;;;;16.92;35.00;99511.84;4970615;28;20031;-73
2024/01/17 05:28:25;;;;;;;5.20;2.40;;;;;;;16.95;34.55;99516.00;4968738;28;20035;-72
2024/01/17 05:30:50;;;;;;;5.78;2.10;;;;;;;16.92;34.81;99514.47;4970062;28;20064;-72
2024/01/17 05:33:16;;;;;;;6.22;2.25;;;;;;;16.95;34.95;99502.84;4970465;28;20423;-72
2024/01/17 05:35:41;;;;;;;5.07;1.92;;;;;;;17.09;35.39;99523.38;4970340;28;20030;-72
2024/01/17 05:38:06;;;;;;;4.78;1.85;;;;;;;16.96;35.44;99493.97;4969548;28;20035;-72
2024/01/17 05:40:32;;;;;;;3.97;1.58;;;;;;;17.04;36.04;99496.69;4969857;28;20039;-72
2024/01/17 05:42:57;;;;;;;4.13;1.73;;;;;;;17.06;36.38;99491.28;4968910;28;20031;-73
2024/01/17 05:45:23;;;;;;;3.83;1.60;;;;;;;17.12;37.03;99482.78;4968762;28;20452;-73
2024/01/17 05:47:49;;;;;;;4.35;1.38;;;;;;;17.17;37.31;99477.88;4968651;28;20046;-73
2024/01/17 05:50:14;;;;;;;3.17;1.48;;;;;;;17.28;37.38;99490.00;4968590;28;20385;-72
2024/01/17 05:52:42;;;;;;;4.40;1.40;;;;;;;17.35;37.33;99496.28;4969651;28;20192;-71
2024/01/17 05:55:10;;;;;;;4.85;1.90;;;;;;;17.39;37.24;99498.47;4968519;28;20031;-72
2024/01/17 05:57:37;;;;;;;4.55;1.63;;;;;;;17.32;37.25;99475.53;4970259;28;20074;-73
2024/01/17 06:00:09;;;;;;;3.88;1.40;;;;;;;17.41;37.37;99480.69;4967794;28;20109;-71
2024/01/17 06:02:36;;;;;;;3.72;1.45;;;;;;;17.44;37.30;99473.50;4967994;28;20085;-71
2024/01/17 06:05:02;;;;;;;3.58;1.40;;;;;;;17.47;37.37;99479.28;4968982;28;20118;-72
2024/01/17 06:07:28;;;;;;;3.55;1.55;;;;;;;17.49;37.07;99474.66;4969096;28;20029;-72
2024/01/17 06:09:53;;;;;;;3.90;1.55;;;;;;;17.45;37.28;99460.16;4968544;28;20023;-72
2024/01/17 06:12:18;;;;;;;5.38;1.50;;;;;;;17.48;37.57;99457.22;4969102;28;20089;-73
2024/01/17 06:14:44;;;;;;;5.55;2.00;;;;;;;17.45;37.54;99451.41;4969294;28;20037;-71
2024/01/17 06:17:09;;;;;;;6.97;1.90;;;;;;;17.56;37.36;99459.06;4969626;28;20031;-71
2024/01/17 06:19:34;;;;;;;4.80;1.75;;;;;;;17.50;37.53;99444.72;4969567;28;20456;-72
2024/01/17 06:22:00;;;;;;;3.55;1.48;;;;;;;17.54;37.39;99446.06;4969408;28;20039;-72
2024/01/17 06:24:26;;;;;;;4.22;1.40;;;;;;;17.53;37.19;99436.50;4969173;28;20086;-71
2024/01/17 06:26:51;;;;;;;5.40;1.58;;;;;;;17.57;37.22;99442.28;4968963;28;20439;-71
2024/01/17 06:29:17;;;;;;;4.38;1.42;;;;;;;17.66;37.22;99462.44;4967431;28;20443;-72
2024/01/17 06:31:42;;;;;;;4.97;1.67;;;;;;;17.59;37.52;99440.31;4967359;28;20066;-71
2024/01/17 06:34:08;;;;;;;5.18;1.58;;;;;;;17.58;37.47;99434.25;4968322;28;20034;-72
2024/01/17 06:36:33;;;;;;;5.07;1.58;;;;;;;17.66;37.15;99440.56;4969131;28;20038;-73
2024/01/17 06:38:58;;;;;;;4.00;1.50;;;;;;;17.61;37.01;99424.34;4967322;28;20034;-72
2024/01/17 06:41:24;;;;;;;6.68;1.63;;;;;;;17.55;37.30;99408.19;4969260;28;20117;-72
2024/01/17 06:43:49;;;;;;;5.43;1.52;;;;;;;17.56;37.26;99409.88;4967672;28;20031;-72
2024/01/17 06:46:15;;;;;;;3.45;1.60;;;;;;;17.53;37.17;99398.78;4968874;28;20042;-73
2024/01/17 06:48:40;;;;;;;4.80;1.58;;;;;;;17.58;37.22;99415.78;4968756;28;20133;-72
2024/01/17 06:51:06;;;;;;;4.20;1.70;;;;;;;17.68;37.16;99423.59;4968931;28;20038;-72
2024/01/17 06:53:31;;;;;;;3.90;1.70;;;;;;;17.71;36.91;99420.66;4968264;28;20383;-72
2024/01/17 06:55:57;;;;;;;5.55;1.77;;;;;;;17.71;36.75;99418.00;4967996;28;20130;-73
2024/01/17 06:58:22;;;;;;;5.28;2.17;;;;;;;17.70;36.69;99418.16;4966218;28;20398;-72
2024/01/17 07:00:47;;;;;;;4.47;1.95;;;;;;;17.58;36.38;99397.34;4968790;28;20460;-73
2024/01/17 07:03:13;;;;;;;6.53;2.13;;;;;;;17.68;36.69;99393.78;4967881;28;20437;-72
2024/01/17 07:05:38;;;;;;;6.07;2.30;;;;;;;17.64;36.79;99395.91;4968572;28;20038;-73
2024/01/17 07:08:04;;;;;;;4.35;2.00;;;;;;;17.65;36.74;99387.00;4967880;28;20458;-72
2024/01/17 07:10:29;;;;;;;4.78;1.95;;;;;;;17.59;36.89;99364.78;4967936;28;20458;-73
2024/01/17 07:12:54;;;;;;;5.07;1.90;;;;;;;17.66;37.04;99380.78;4968456;28;20547;-72
2024/01/17 07:15:20;;;;;;;4.85;2.00;;;;;;;17.56;36.99;99356.34;4967328;28;21058;-72
2024/01/17 07:17:45;;;;;;;5.43;2.10;;;;;;;17.61;37.07;99353.22;4967591;28;20514;-72
2024/01/17 07:20:12;;;;;;;6.30;2.30;;;;;;;17.54;37.12;99345.94;4966523;28;20490;-71
2024/01/17 07:22:46;;;;;;;5.55;1.77;;;;;;;17.62;36.85;99352.25;4966925;28;20779;-72
2024/01/17 07:25:13;;;;;;;4.78;1.67;;;;;;;17.55;37.09;99337.09;4965521;28;20579;-72
2024/01/17 07:27:44;;;;;;;6.55;1.90;;;;;;;17.64;37.12;99358.19;4966722;28;20038;-73
2024/01/17 07:30:13;;;;;;;5.65;2.15;;;;;;;17.58;37.40;99339.41;4965954;28;20097;-72
2024/01/17 07:32:39;;;;;;;4.80;1.95;;;;;;;17.59;37.08;99332.31;4965495;28;20081;-72
2024/01/17 07:35:05;;;;;;;5.22;1.90;;;;;;;17.63;37.23;99330.22;4963139;28;20473;-73
2024/01/17 07:37:31;;;;;;;5.55;1.80;;;;;;;17.46;37.45;99295.88;4966100;28;20039;-73
2024/01/17 07:39:57;;;;;;;4.47;1.90;;;;;;;17.65;37.26;99315.06;4965164;28;20506;-74
2024/01/17 07:42:22;;;;;;;7.25;2.33;;;;;;;17.63;37.31;99315.22;4966730;28;20060;-72
2024/01/17 07:44:48;;;;;;;4.72;1.73;;;;;;;17.68;37.30;99312.94;4966593;28;20027;-72
2024/01/17 07:47:13;;;;;;;4.00;1.60;;;;;;;17.70;37.45;99310.13;4966595;28;20039;-72
2024/01/17 07:49:39;;;;;;;5.15;1.90;;;;;;;17.62;37.42;99278.50;4963609;28;20448;-74
2024/01/17 07:52:05;;;;;;;6.93;2.30;;;;;;;17.66;35.92;99282.47;4966163;28;20043;-73
2024/01/17 07:54:32;;;;;;;6.07;1.80;;;;;;;17.59;36.48;99271.72;4964705;28;20074;-72
2024/01/17 07:56:57;;;;;;;6.05;2.08;;;;;;;17.67;36.75;99279.66;4964896;28;20502;-73
2024/01/17 07:59:23;;;;;;;4.40;1.67;;;;;;;17.56;36.96;99254.44;4966316;28;20062;-74
2024/01/17 08:01:51;;;;;;;5.68;1.65;;;;;;;17.64;37.05;99266.84;4965876;28;20033;-74
2024/01/17 08:04:17;;;;;;;4.47;1.50;;;;;;;17.61;37.13;99261.03;4966614;28;20468;-74
2024/01/17 08:06:43;;;;;;;6.15;1.70;;;;;;;17.70;37.25;99265.34;4966601;28;20118;-74
2024/01/17 08:09:20;;;;;;;4.90;1.77;;;;;;;17.71;37.27;99267.00;4967108;28;20027;-74
2024/01/17 08:11:59;;;;;;;4.63;1.65;;;;;;;17.68;37.21;99259.44;4949656;28;20038;-74
2024/01/17 08:14:24;;;;;;;4.05;1.70;;;;;;;17.67;37.18;99255.13;4966667;28;20483;-74
2024/01/17 08:16:50;;;;;;;4.47;1.98;;;;;;;17.75;37.75;99260.41;4967826;28;20035;-73
2024/01/17 08:19:17;;;;;;;4.45;1.88;;;;;;;17.63;37.55;99241.47;4967353;28;20039;-75
2024/01/17 08:21:43;;;;;;;3.80;1.40;;;;;;;17.67;38.17;99244.59;4967709;28;20031;-74
2024/01/17 08:24:09;;;;;;;3.47;1.33;;;;;;;17.67;38.10;99240.13;4966321;28;20046;-74
2024/01/17 08:26:34;;;;;;;5.22;1.70;;;;;;;17.68;37.93;99233.91;4967557;28;20031;-74
2024/01/17 08:29:00;;;;;;;4.82;1.45;;;;;;;17.82;37.84;99258.00;4967709;28;20180;-73
2024/01/17 08:31:25;;;;;;;5.28;1.80;;;;;;;17.68;38.13;99225.19;4967335;28;20043;-72
2024/01/17 08:33:51;;;;;;;4.93;1.50;;;;;;;17.80;38.02;99237.06;4967222;28;20039;-74
2024/01/17 08:36:16;;;;;;;3.95;1.50;;;;;;;17.67;38.39;99216.44;4967393;28;20039;-74
2024/01/17 08:38:42;;;;;;;6.43;1.52;;;;;;;17.84;38.19;99238.38;4965655;28;20428;-77
2024/01/17 08:41:08;;;;;;;5.05;1.50;;;;;;;17.80;38.37;99215.13;4966540;28;20081;-76
2024/01/17 08:43:35;;;;;;;4.88;1.50;;;;;;;17.76;38.33;99197.03;4964433;28;20053;-78
2024/01/17 08:46:00;;;;;;;4.10;1.40;;;;;;;17.90;38.27;99227.22;4966521;28;20023;-76
2024/01/17 08:48:26;;;;;;;4.25;1.30;;;;;;;17.91;38.22;99214.84;4966146;28;20042;-75
2024/01/17 08:50:51;;;;;;;4.88;1.65;;;;;;;17.75;38.41;99178.75;4965868;28;20518;-76
2024/01/17 08:53:16;;;;;;;4.55;1.40;;;;;;;17.87;38.50;99193.25;4967314;28;20112;-73
2024/01/17 08:55:42;;;;;;;4.20;1.67;;;;;;;17.93;38.43;99200.53;4958025;28;20402;-72
2024/01/17 08:58:07;;;;;;;3.92;1.50;;;;;;;17.82;38.27;99171.03;4964678;28;20070;-73
2024/01/17 09:00:33;;;;;;;5.60;1.42;;;;;;;17.86;38.25;99180.25;4965547;28;20061;-69
2024/01/17 09:02:58;;;;;;;4.85;1.70;;;;;;;17.93;38.01;99189.19;4965305;28;20035;-72
2024/01/17 09:05:24;;;;;;;4.88;1.70;;;;;;;17.88;38.00;99173.00;4967051;28;20050;-72
2024/01/17 09:07:49;;;;;;;8.80;2.28;;;;;;;17.90;38.19;99168.44;4966592;28;20484;-76
2024/01/17 09:10:17;;;;;;;4.72;2.00;;;;;;;17.84;37.73;99158.50;4949370;28;20483;-72
2024/01/17 09:12:43;;;;;;;4.45;1.58;;;;;;;17.86;37.93;99157.34;4966446;28;20031;-72
2024/01/17 09:15:09;;;;;;;3.85;1.50;;;;;;;17.87;37.86;99161.63;4966514;28;20031;-74
2024/01/17 09:17:34;;;;;;;7.32;1.98;;;;;;;17.90;37.84;99163.16;4966827;28;20041;-70
2024/01/17 09:20:00;;;;;;;4.85;1.80;;;;;;;17.92;38.10;99167.25;4966265;28;20046;-73
2024/01/17 09:22:25;;;;;;;5.97;1.80;;;;;;;17.72;38.16;99129.00;4966458;28;20039;-69
2024/01/17 09:24:51;;;;;;;4.60;1.65;;;;;;;17.93;38.01;99162.84;4966343;28;20144;-69
2024/01/17 09:27:16;;;;;;;6.00;1.60;;;;;;;17.89;38.07;99157.03;4969648;28;20035;-72
2024/01/17 09:29:41;;;;;;;6.03;1.90;;;;;;;17.82;38.15;99145.50;4970132;28;20041;-72
2024/01/17 09:32:07;;;;;;;6.20;2.00;;;;;;;17.94;37.70;99153.91;4970210;28;20042;-70
2024/01/17 09:34:32;;;;;;;6.90;1.90;;;;;;;17.88;37.93;99138.75;4970295;28;20034;-71
2024/01/17 09:36:59;;;;;;;7.88;1.95;;;;;;;17.94;38.18;99148.66;4969885;28;20030;-71
2024/01/17 09:39:25;;;;;;;5.03;2.10;;;;;;;17.93;37.81;99158.38;4970015;28;20423;-75
2024/01/17 09:41:51;;;;;;;4.25;1.92;;;;;;;17.89;37.52;99141.22;4985133;28;20039;-71
2024/01/17 09:44:17;;;;;;;4.07;1.70;;;;;;;17.82;37.67;99131.50;4970057;28;20039;-74
2024/01/17 09:46:43;;;;;;;4.03;1.90;;;;;;;17.93;37.81;99153.09;4969982;28;20046;-71
2024/01/17 09:49:09;;;;;;;5.25;2.15;;;;;;;17.82;37.82;99128.88;4969516;28;20051;-68
2024/01/17 09:51:35;;;;;;;7.05;1.95;;;;;;;17.92;37.91;99148.81;4969237;28;20428;-72
2024/01/17 09:54:04;;;;;;;4.75;1.65;;;;;;;17.83;37.73;99125.22;4969595;28;20073;-74
2024/01/17 09:56:31;;;;;;;5.40;1.90;;;;;;;17.83;37.73;99122.59;4969257;28;20046;-70
2024/01/17 09:59:05;;;;;;;6.40;2.05;;;;;;;17.84;37.61;99118.97;4969052;28;20035;-73
2024/01/17 10:01:33;;;;;;;8.10;2.03;;;;;;;17.82;38.03;99105.16;4969520;28;20093;-72
2024/01/17 10:04:00;;;;;;;6.13;1.85;;;;;;;17.92;37.92;99119.81;4968903;28;20355;-72
2024/01/17 10:06:27;;;;;;;3.75;1.65;;;;;;;17.89;37.97;99112.25;4969512;28;20046;-75
2024/01/17 10:08:53;;;;;;;5.88;1.67;;;;;;;17.97;37.50;99124.59;4969284;28;20037;-73
2024/01/17 10:11:19;;;;;;;6.80;1.83;;;;;;;17.94;37.50;99117.88;4969310;28;20058;-72
2024/01/17 10:13:44;;;;;;;4.88;1.80;;;;;;;17.77;37.50;99092.47;4968845;28;20468;-73
2024/01/17 10:16:11;;;;;;;4.50;1.90;;;;;;;17.92;37.36;99121.63;4969654;28;20373;-74
2024/01/17 10:18:36;;;;;;;4.40;2.33;;;;;;;17.94;37.04;99117.03;4969676;28;20535;-74
2024/01/17 10:21:03;;;;;;;5.75;2.03;;;;;;;17.95;37.25;99119.50;4969478;28;20023;-73
2024/01/17 10:23:29;;;;;;;5.05;1.75;;;;;;;17.92;37.22;99117.19;4970296;28;20126;-74
2024/01/17 10:25:56;;;;;;;4.63;1.65;;;;;;;17.90;37.31;99098.09;4969422;28;20376;-73
2024/01/17 10:28:23;;;;;;;5.30;2.13;;;;;;;17.90;37.20;99102.53;4984035;28;20086;-68
2024/01/17 10:30:49;;;;;;;5.22;1.88;;;;;;;17.88;37.73;99097.44;4967704;28;20046;-73
2024/01/17 10:33:14;;;;;;;4.40;1.80;;;;;;;17.81;37.63;99079.78;4969240;28;20117;-76
2024/01/17 10:35:40;;;;;;;4.82;1.88;;;;;;;17.87;37.25;99092.31;4965616;28;20038;-74
2024/01/17 10:38:06;;;;;;;7.70;2.65;;;;;;;17.93;37.36;99097.75;4967613;28;20039;-75
2024/01/17 10:40:32;;;;;;;6.13;2.22;;;;;;;17.94;37.22;99091.50;4968025;28;20031;-73
2024/01/17 10:43:13;;;;;;;7.60;2.28;;;;;;;17.93;37.35;99079.31;4965227;28;20094;-72
2024/01/17 10:45:40;;;;;;;5.57;1.90;;;;;;;17.94;37.63;99085.41;4967224;28;20145;-72
2024/01/17 10:48:06;;;;;;;7.75;2.30;;;;;;;17.88;37.79;99071.09;4967665;28;20039;-71
2024/01/17 10:50:32;;;;;;;5.95;2.33;;;;;;;17.77;37.79;99043.22;4967648;28;20070;-72
2024/01/17 10:53:08;;;;;;;8.57;2.53;;;;;;;17.85;37.71;99046.81;4967466;28;20070;-71
2024/01/17 10:55:36;;;;;;;6.43;2.55;;;;;;;17.96;37.79;99059.72;4967542;28;20472;-73
2024/01/17 10:58:07;;;;;;;5.85;2.25;;;;;;;17.90;37.88;99055.91;4966796;28;20070;-70
2024/01/17 11:00:37;;;;;;;5.22;1.98;;;;;;;17.95;38.03;99052.78;4968412;28;20033;-70
2024/01/17 11:03:08;;;;;;;5.63;2.63;;;;;;;17.91;37.61;99038.28;4965952;28;20031;-73
2024/01/17 11:05:43;;;;;;;5.60;2.03;;;;;;;17.98;37.80;99041.91;4966686;28;20026;-72
2024/01/17 11:08:09;;;;;;;6.72;2.33;;;;;;;18.04;38.16;99038.63;4965911;28;21055;-73
2024/01/17 11:10:35;;;;;;;7.15;2.72;;;;;;;18.03;38.21;99034.31;4967416;28;20030;-73
2024/01/17 11:13:02;;;;;;;6.20;1.90;;;;;;;18.11;38.79;99030.84;4966870;28;21205;-71
2024/01/17 11:15:29;;;;;;;6.57;2.08;;;;;;;18.10;38.63;99026.56;4967052;28;20098;-71
2024/01/17 11:17:56;;;;;;;7.25;2.20;;;;;;;18.17;38.85;99032.00;4968104;28;20078;-70
2024/01/17 11:20:23;;;;;;;6.95;2.35;;;;;;;18.23;38.80;99031.31;4967621;28;20042;-72
2024/01/17 11:22:50;;;;;;;6.90;2.60;;;;;;;18.22;38.49;99027.03;4968741;28;20053;-73
2024/01/17 11:25:34;;;;;;;5.75;2.10;;;;;;;18.31;38.78;99026.03;4967880;28;20035;-71